createdAt,value
2018-06-21T00:00:33.375Z,3.97
2018-06-21T00:03:01.790Z,4.10
2018-06-21T00:05:30.208Z,4.07
2018-06-21T00:07:58.612Z,4.00
2018-06-21T00:10:28.207Z,4.90
2018-06-21T00:12:56.659Z,4.20
2018-06-21T00:15:25.116Z,3.70
2018-06-21T00:17:53.531Z,6.57
2018-06-21T00:20:22.025Z,7.37
2018-06-21T00:22:50.450Z,5.27
2018-06-21T00:25:18.879Z,4.97
2018-06-21T00:27:47.304Z,7.13
2018-06-21T00:30:15.695Z,21.10
2018-06-21T00:32:44.404Z,11.80
2018-06-21T00:35:12.833Z,9.70
2018-06-21T00:37:41.286Z,6.20
2018-06-21T00:40:09.744Z,5.87
2018-06-21T00:42:38.153Z,5.40
2018-06-21T00:45:07.939Z,5.20
2018-06-21T00:47:36.508Z,5.03
2018-06-21T00:50:05.061Z,5.50
2018-06-21T00:52:33.437Z,5.83
2018-06-21T00:55:01.867Z,5.10
2018-06-21T00:57:30.279Z,5.60
2018-06-21T00:59:58.743Z,5.20
2018-06-21T01:02:27.180Z,6.40
2018-06-21T01:04:55.617Z,5.50
2018-06-21T01:07:24.071Z,5.87
2018-06-21T01:09:52.497Z,5.70
2018-06-21T01:12:22.563Z,5.50
2018-06-21T01:14:53.039Z,5.77
2018-06-21T01:17:21.501Z,6.00
2018-06-21T01:19:49.909Z,5.20
2018-06-21T01:22:18.335Z,5.80
2018-06-21T01:24:46.839Z,5.70
2018-06-21T01:27:19.142Z,6.00
2018-06-21T01:29:47.646Z,5.50
2018-06-21T01:32:16.049Z,5.30
2018-06-21T01:34:44.493Z,4.67
2018-06-21T01:37:12.930Z,4.80
2018-06-21T01:39:41.320Z,5.47
2018-06-21T01:42:09.716Z,5.70
2018-06-21T01:44:38.181Z,5.70
2018-06-21T01:47:06.584Z,6.27
2018-06-21T01:49:35.049Z,6.33
2018-06-21T01:52:03.471Z,5.87
2018-06-21T01:54:31.903Z,6.20
2018-06-21T01:57:00.336Z,6.83
2018-06-21T01:59:28.806Z,6.00
2018-06-21T02:01:57.222Z,7.43
2018-06-21T02:04:25.631Z,5.90
2018-06-21T02:06:54.053Z,6.47
2018-06-21T02:09:22.533Z,7.70
2018-06-21T02:11:50.949Z,6.87
2018-06-21T02:14:19.403Z,6.30
2018-06-21T02:16:47.787Z,6.70
2018-06-21T02:19:16.277Z,7.53
2018-06-21T02:21:44.689Z,7.40
2018-06-21T02:24:13.107Z,8.00
2018-06-21T02:26:41.576Z,7.03
2018-06-21T02:29:10.036Z,7.77
2018-06-21T02:31:38.807Z,8.10
2018-06-21T02:34:07.787Z,7.80
2018-06-21T02:36:36.323Z,8.70
2018-06-21T02:39:06.179Z,9.17
2018-06-21T02:41:34.572Z,9.50
2018-06-21T02:44:02.965Z,8.70
2018-06-21T02:46:31.391Z,8.67
2018-06-21T02:48:59.783Z,9.13
2018-06-21T02:51:28.219Z,9.40
2018-06-21T02:53:56.612Z,10.43
2018-06-21T02:56:25.052Z,10.00
2018-06-21T02:58:58.192Z,9.10
2018-06-21T03:01:26.616Z,9.60
2018-06-21T03:03:55.085Z,9.00
2018-06-21T03:06:23.502Z,7.83
2018-06-21T03:08:51.983Z,9.20
2018-06-21T03:11:20.441Z,9.33
2018-06-21T03:13:48.914Z,10.13
2018-06-21T03:16:17.320Z,8.60
2018-06-21T03:18:45.791Z,8.73
2018-06-21T03:21:14.236Z,9.40
2018-06-21T03:23:42.653Z,8.97
2018-06-21T03:26:11.064Z,9.23
2018-06-21T03:28:39.460Z,9.10
2018-06-21T03:31:07.886Z,9.77
2018-06-21T03:33:36.307Z,9.40
2018-06-21T03:36:04.989Z,9.20
2018-06-21T03:38:33.410Z,8.93
2018-06-21T03:41:01.812Z,8.67
2018-06-21T03:43:30.248Z,8.20
2018-06-21T03:45:58.682Z,9.57
2018-06-21T03:48:27.144Z,9.07
2018-06-21T03:50:55.588Z,9.20
2018-06-21T03:53:23.989Z,9.83
2018-06-21T03:55:52.396Z,9.43
2018-06-21T03:58:20.847Z,9.50
2018-06-21T04:00:49.284Z,9.47
2018-06-21T04:03:17.697Z,8.83
2018-06-21T04:05:46.140Z,9.83
2018-06-21T04:08:14.777Z,10.30
2018-06-21T04:10:43.312Z,10.07
2018-06-21T04:13:11.764Z,10.80
2018-06-21T04:15:40.220Z,9.27
2018-06-21T04:18:08.700Z,9.30
2018-06-21T04:20:37.996Z,9.80
2018-06-21T04:23:07.210Z,10.23
2018-06-21T04:25:35.774Z,10.00
2018-06-21T04:28:04.273Z,9.93
2018-06-21T04:30:40.574Z,9.60
2018-06-21T04:33:08.998Z,8.13
2018-06-21T04:35:37.432Z,10.13
2018-06-21T04:38:06.046Z,8.93
2018-06-21T04:40:34.458Z,9.17
2018-06-21T04:43:02.943Z,8.33
2018-06-21T04:45:31.352Z,8.30
2018-06-21T04:47:59.794Z,8.80
2018-06-21T04:50:28.206Z,7.77
2018-06-21T04:52:56.608Z,8.20
2018-06-21T04:55:25.062Z,8.10
2018-06-21T04:57:53.470Z,8.23
2018-06-21T05:00:22.104Z,7.97
2018-06-21T05:02:50.561Z,8.47
2018-06-21T05:05:19.004Z,6.97
2018-06-21T05:07:47.620Z,9.17
2018-06-21T05:10:16.002Z,7.37
2018-06-21T05:12:44.744Z,7.53
2018-06-21T05:15:13.224Z,9.97
2018-06-21T05:17:41.676Z,9.30
2018-06-21T05:20:10.068Z,11.60
2018-06-21T05:22:38.564Z,11.40
2018-06-21T05:25:07.120Z,13.57
2018-06-21T05:27:36.597Z,14.13
2018-06-21T05:30:05.356Z,14.47
2018-06-21T05:32:35.102Z,14.63
2018-06-21T05:35:03.576Z,15.23
2018-06-21T05:37:31.999Z,14.70
2018-06-21T05:40:00.360Z,13.50
2018-06-21T05:42:28.812Z,15.30
2018-06-21T05:44:57.252Z,14.53
2018-06-21T05:47:25.692Z,13.63
2018-06-21T05:49:54.129Z,14.30
2018-06-21T05:52:22.630Z,15.07
2018-06-21T05:54:51.036Z,15.20
2018-06-21T05:57:19.455Z,15.03
2018-06-21T05:59:47.862Z,14.30
2018-06-21T06:02:16.871Z,13.00
2018-06-21T06:04:45.326Z,13.40
2018-06-21T06:07:13.787Z,13.13
2018-06-21T06:09:42.251Z,12.40
2018-06-21T06:12:10.658Z,13.43
2018-06-21T06:14:39.090Z,14.17
2018-06-21T06:17:07.596Z,13.50
2018-06-21T06:19:36.056Z,12.93
2018-06-21T06:22:04.520Z,13.57
2018-06-21T06:24:32.913Z,14.23
2018-06-21T06:27:01.300Z,16.13
2018-06-21T06:29:29.804Z,20.40
2018-06-21T06:31:58.259Z,23.93
2018-06-21T06:34:26.643Z,23.93
2018-06-21T06:36:55.037Z,22.63
2018-06-21T06:39:23.446Z,23.20
2018-06-21T06:41:52.245Z,21.33
2018-06-21T06:44:20.687Z,22.70
2018-06-21T06:46:49.141Z,23.67
2018-06-21T06:49:17.605Z,21.20
2018-06-21T06:51:46.000Z,24.63
2018-06-21T06:54:14.405Z,25.00
2018-06-21T06:56:42.886Z,24.10
2018-06-21T06:59:11.303Z,24.47
2018-06-21T07:01:39.765Z,26.63
2018-06-21T07:04:08.190Z,26.53
2018-06-21T07:06:36.619Z,26.83
2018-06-21T07:09:07.615Z,25.33
2018-06-21T07:11:36.169Z,24.70
2018-06-21T07:14:04.665Z,22.87
2018-06-21T07:16:33.405Z,22.37
2018-06-21T07:19:02.148Z,23.07
2018-06-21T07:21:30.556Z,21.50
2018-06-21T07:23:58.973Z,22.60
2018-06-21T07:26:27.385Z,22.63
2018-06-21T07:28:55.842Z,21.63
2018-06-21T07:31:24.404Z,20.50
2018-06-21T07:33:52.836Z,21.00
2018-06-21T07:36:21.285Z,21.00
2018-06-21T07:38:49.735Z,20.87
2018-06-21T07:41:18.349Z,20.00
2018-06-21T07:43:47.537Z,21.43
2018-06-21T07:46:16.048Z,19.70
2018-06-21T07:48:44.473Z,18.50
2018-06-21T07:51:13.015Z,18.00
2018-06-21T07:53:41.470Z,16.40
2018-06-21T07:56:09.890Z,17.03
2018-06-21T07:58:38.269Z,16.77
2018-06-21T08:01:06.732Z,16.73
2018-06-21T08:03:35.147Z,15.90
2018-06-21T08:06:03.574Z,16.43
2018-06-21T08:08:32.228Z,15.53
2018-06-21T08:11:00.680Z,14.63
2018-06-21T08:13:29.098Z,15.17
2018-06-21T08:15:57.552Z,15.07
2018-06-21T08:18:26.041Z,15.40
2018-06-21T08:20:54.455Z,14.20
2018-06-21T08:23:23.080Z,14.43
2018-06-21T08:25:51.492Z,13.80
2018-06-21T08:28:19.931Z,12.53
2018-06-21T08:30:48.428Z,11.33
2018-06-21T08:33:16.872Z,12.57
2018-06-21T08:35:45.464Z,11.90
2018-06-21T08:38:13.929Z,12.37
2018-06-21T08:40:42.444Z,11.20
2018-06-21T08:43:10.886Z,10.70
2018-06-21T08:45:39.338Z,8.23
2018-06-21T08:48:07.736Z,8.43
2018-06-21T08:50:36.335Z,6.17
2018-06-21T08:53:04.800Z,5.60
2018-06-21T08:55:33.192Z,5.00
2018-06-21T08:58:01.602Z,4.57
2018-06-21T09:00:30.156Z,3.77
2018-06-21T09:02:58.596Z,4.37
2018-06-21T09:05:27.180Z,4.20
2018-06-21T09:07:55.599Z,4.10
2018-06-21T09:10:24.021Z,3.77
2018-06-21T09:12:52.512Z,3.77
2018-06-21T09:15:21.182Z,3.60
2018-06-21T09:17:49.571Z,3.73
2018-06-21T09:20:17.955Z,3.97
2018-06-21T09:22:46.392Z,4.07
2018-06-21T09:25:14.795Z,3.70
2018-06-21T09:27:43.192Z,3.80
2018-06-21T09:30:11.604Z,3.70
2018-06-21T09:32:40.032Z,3.20
2018-06-21T09:35:08.550Z,3.33
2018-06-21T09:37:42.216Z,3.10
2018-06-21T09:40:15.952Z,3.50
2018-06-21T09:42:49.778Z,3.23
2018-06-21T09:45:23.648Z,4.50
2018-06-21T09:47:57.376Z,4.60
2018-06-21T09:50:25.765Z,3.77
2018-06-21T09:52:54.869Z,4.27
2018-06-21T09:55:23.324Z,3.63
2018-06-21T09:57:51.761Z,2.90
2018-06-21T10:00:25.481Z,4.33
2018-06-21T10:02:54.029Z,4.43
2018-06-21T10:05:22.473Z,4.57
2018-06-21T10:07:50.929Z,7.27
2018-06-21T10:10:19.933Z,4.37
2018-06-21T10:12:48.323Z,4.80
2018-06-21T10:15:17.392Z,3.67
2018-06-21T10:17:45.879Z,3.10
2018-06-21T10:20:14.276Z,3.77
2018-06-21T10:22:42.691Z,3.30
2018-06-21T10:25:11.107Z,3.87
2018-06-21T10:27:39.664Z,3.70
2018-06-21T10:30:08.045Z,3.33
2018-06-21T10:32:36.481Z,2.67
2018-06-21T10:35:04.908Z,2.87
2018-06-21T10:37:33.303Z,2.87
2018-06-21T10:40:01.814Z,3.00
2018-06-21T10:42:30.250Z,2.87
2018-06-21T10:44:58.879Z,3.33
2018-06-21T10:47:27.284Z,2.90
2018-06-21T10:49:55.760Z,3.03
2018-06-21T10:52:23.890Z,2.70
2018-06-21T10:54:52.367Z,3.43
2018-06-21T10:57:20.941Z,4.43
2018-06-21T10:59:49.536Z,6.47
2018-06-21T11:02:17.961Z,3.80
2018-06-21T11:04:46.381Z,3.20
2018-06-21T11:07:14.875Z,3.90
2018-06-21T11:09:43.394Z,3.90
2018-06-21T11:12:11.807Z,2.23
2018-06-21T11:14:40.350Z,2.67
2018-06-21T11:17:08.812Z,3.30
2018-06-21T11:19:37.277Z,2.50
2018-06-21T11:22:05.857Z,2.37
2018-06-21T11:24:34.255Z,2.40
2018-06-21T11:27:02.695Z,2.33
2018-06-21T11:29:31.141Z,2.50
2018-06-21T11:31:59.290Z,2.33
2018-06-21T11:34:27.719Z,2.63
2018-06-21T11:36:56.145Z,2.60
2018-06-21T11:39:26.531Z,2.50
2018-06-21T11:41:55.456Z,2.50
2018-06-21T11:44:23.893Z,2.13
2018-06-21T11:46:52.296Z,2.40
2018-06-21T11:49:20.699Z,2.30
2018-06-21T11:51:49.243Z,2.40
2018-06-21T11:54:17.708Z,2.00
2018-06-21T11:56:46.164Z,2.50
2018-06-21T11:59:15.609Z,2.50
2018-06-21T12:01:44.280Z,1.67
2018-06-21T12:04:12.700Z,1.80
2018-06-21T12:06:41.197Z,1.57
2018-06-21T12:09:10.663Z,1.40
2018-06-21T12:11:39.079Z,2.10
2018-06-21T12:14:07.864Z,1.93
2018-06-21T12:16:36.615Z,3.17
2018-06-21T12:19:11.778Z,6.10
2018-06-21T12:21:40.292Z,3.27
2018-06-21T12:24:08.814Z,4.90
2018-06-21T12:26:37.231Z,4.10
2018-06-21T12:29:05.797Z,3.10
2018-06-21T12:31:35.251Z,3.17
2018-06-21T12:34:03.771Z,2.40
2018-06-21T12:36:32.301Z,2.33
2018-06-21T12:39:01.621Z,2.00
2018-06-21T12:41:30.475Z,2.37
2018-06-21T12:43:59.072Z,2.07
2018-06-21T12:46:28.373Z,1.53
2018-06-21T12:48:56.805Z,1.70
2018-06-21T12:51:25.303Z,1.90
2018-06-21T12:53:53.530Z,1.90
2018-06-21T12:56:23.091Z,1.90
2018-06-21T12:58:51.561Z,1.10
2018-06-21T13:01:21.281Z,1.77
2018-06-21T13:03:49.743Z,1.73
2018-06-21T13:06:18.687Z,1.80
2018-06-21T13:08:59.541Z,1.60
2018-06-21T13:11:39.413Z,2.00
2018-06-21T13:14:19.395Z,1.87
2018-06-21T13:16:47.828Z,2.00
2018-06-21T13:19:16.332Z,1.97
2018-06-21T13:21:44.772Z,1.73
2018-06-21T13:24:13.200Z,1.70
2018-06-21T13:26:42.238Z,2.37
2018-06-21T13:29:10.648Z,1.53
2018-06-21T13:31:39.057Z,1.70
2018-06-21T13:34:07.584Z,2.03
2018-06-21T13:36:36.016Z,1.87
2018-06-21T13:39:06.164Z,1.90
2018-06-21T13:41:34.592Z,1.60
2018-06-21T13:44:03.022Z,1.70
2018-06-21T13:46:31.477Z,2.47
2018-06-21T13:48:59.875Z,1.77
2018-06-21T13:51:28.272Z,2.00
2018-06-21T13:53:56.688Z,2.00
2018-06-21T13:56:25.188Z,2.10
2018-06-21T13:58:53.664Z,2.40
2018-06-21T14:01:22.562Z,2.03
2018-06-21T14:03:50.968Z,2.37
2018-06-21T14:06:19.393Z,2.00
2018-06-21T14:08:47.872Z,2.50
2018-06-21T14:11:16.333Z,2.43
2018-06-21T14:13:44.787Z,2.37
2018-06-21T14:16:14.310Z,2.43
2018-06-21T14:18:43.099Z,1.93
2018-06-21T14:21:12.924Z,2.43
2018-06-21T14:23:42.330Z,2.40
2018-06-21T14:26:10.716Z,2.50
2018-06-21T14:28:39.116Z,3.10
2018-06-21T14:31:07.616Z,1.70
2018-06-21T14:33:36.049Z,2.50
2018-06-21T14:36:05.052Z,2.60
2018-06-21T14:38:33.560Z,1.90
2018-06-21T14:41:01.980Z,2.30
2018-06-21T14:43:30.561Z,5.60
2018-06-21T14:45:59.501Z,2.10
2018-06-21T14:48:27.925Z,2.60
2018-06-21T14:50:56.529Z,2.43
2018-06-21T14:53:25.015Z,2.10
2018-06-21T14:55:53.505Z,2.40
2018-06-21T14:58:22.243Z,2.00
2018-06-21T15:00:50.653Z,1.93
2018-06-21T15:03:19.111Z,2.30
2018-06-21T15:05:47.673Z,1.87
2018-06-21T15:08:16.059Z,2.73
2018-06-21T15:10:44.484Z,2.10
2018-06-21T15:13:13.298Z,2.20
2018-06-21T15:15:41.731Z,2.53
2018-06-21T15:18:10.155Z,2.77
2018-06-21T15:20:38.597Z,2.93
2018-06-21T15:23:07.434Z,2.07
2018-06-21T15:25:36.347Z,2.30
2018-06-21T15:28:05.080Z,2.47
2018-06-21T15:30:33.533Z,2.73
2018-06-21T15:33:01.961Z,3.03
2018-06-21T15:35:30.568Z,4.10
2018-06-21T15:37:58.999Z,3.40
2018-06-21T15:40:27.478Z,10.40
2018-06-21T15:42:57.027Z,9.30
2018-06-21T15:45:25.677Z,6.73
2018-06-21T15:47:54.201Z,3.77
2018-06-21T15:50:22.540Z,2.77
2018-06-21T15:52:50.953Z,3.10
2018-06-21T15:55:20.334Z,2.73
2018-06-21T15:57:49.005Z,2.93
2018-06-21T16:00:17.471Z,2.13
2018-06-21T16:02:45.951Z,2.40
2018-06-21T16:05:14.384Z,2.23
2018-06-21T16:07:42.842Z,3.30
2018-06-21T16:10:11.370Z,2.10
2018-06-21T16:12:39.819Z,2.83
2018-06-21T16:15:13.976Z,3.73
2018-06-21T16:17:42.436Z,2.50
2018-06-21T16:20:10.886Z,2.27
2018-06-21T16:22:39.341Z,2.80
2018-06-21T16:25:07.756Z,2.23
2018-06-21T16:27:36.231Z,2.67
2018-06-21T16:30:05.155Z,2.20
2018-06-21T16:32:33.616Z,2.30
2018-06-21T16:35:02.088Z,2.10
2018-06-21T16:37:30.496Z,1.53
2018-06-21T16:39:58.931Z,1.50
2018-06-21T16:42:27.353Z,1.30
2018-06-21T16:44:55.455Z,1.70
2018-06-21T16:47:24.209Z,2.40
2018-06-21T16:49:52.619Z,2.67
2018-06-21T16:52:21.382Z,2.07
2018-06-21T16:54:49.970Z,2.60
2018-06-21T16:57:18.599Z,1.97
2018-06-21T16:59:47.655Z,2.40
2018-06-21T17:02:16.082Z,2.40
2018-06-21T17:04:44.467Z,2.53
2018-06-21T17:07:14.300Z,2.83
2018-06-21T17:09:42.719Z,2.80
2018-06-21T17:12:11.136Z,2.67
2018-06-21T17:14:41.043Z,2.67
2018-06-21T17:17:10.436Z,3.13
2018-06-21T17:19:39.110Z,2.80
2018-06-21T17:22:07.736Z,1.90
2018-06-21T17:24:36.236Z,2.00
2018-06-21T17:27:04.903Z,2.60
2018-06-21T17:29:33.389Z,2.03
2018-06-21T17:32:01.977Z,2.03
2018-06-21T17:34:30.407Z,2.80
2018-06-21T17:36:59.039Z,2.23
2018-06-21T17:39:27.456Z,2.17
2018-06-21T17:41:55.960Z,2.33
2018-06-21T17:44:24.368Z,3.87
2018-06-21T17:46:52.928Z,14.97
2018-06-21T17:49:21.426Z,7.20
2018-06-21T17:51:49.845Z,7.70
2018-06-21T17:54:18.287Z,2.17
2018-06-21T17:56:46.720Z,4.13
2018-06-21T17:59:15.195Z,2.83
2018-06-21T18:01:44.266Z,2.40
2018-06-21T18:04:13.200Z,2.23
2018-06-21T18:06:41.784Z,4.20
2018-06-21T18:09:10.864Z,2.33
2018-06-21T18:11:39.336Z,4.63
2018-06-21T18:14:08.554Z,8.50
2018-06-21T18:16:37.016Z,8.70
2018-06-21T18:19:05.472Z,4.70
2018-06-21T18:21:35.038Z,4.37
2018-06-21T18:24:04.257Z,3.20
2018-06-21T18:26:32.648Z,2.70
2018-06-21T18:29:01.282Z,21.77
2018-06-21T18:31:30.895Z,2.77
2018-06-21T18:33:59.302Z,7.43
2018-06-21T18:36:27.929Z,4.93
2018-06-21T18:38:56.352Z,8.50
2018-06-21T18:41:24.911Z,2.00
2018-06-21T18:43:53.333Z,2.27
2018-06-21T18:46:21.972Z,5.13
2018-06-21T18:48:50.421Z,8.07
2018-06-21T18:51:18.935Z,6.40
2018-06-21T18:53:47.427Z,20.80
2018-06-21T18:56:15.849Z,4.07
2018-06-21T18:58:44.279Z,16.53
2018-06-21T19:01:12.867Z,4.73
2018-06-21T19:03:46.833Z,4.50
2018-06-21T19:06:21.241Z,8.73
2018-06-21T19:08:55.853Z,4.07
2018-06-21T19:11:30.168Z,17.43
2018-06-21T19:13:58.700Z,8.10
2018-06-21T19:16:27.743Z,3.60
2018-06-21T19:19:03.919Z,3.10
2018-06-21T19:21:32.623Z,5.20
2018-06-21T19:24:01.140Z,5.77
2018-06-21T19:26:29.687Z,7.47
2018-06-21T19:28:58.505Z,10.50
2018-06-21T19:31:26.979Z,6.87
2018-06-21T19:33:55.415Z,4.20
2018-06-21T19:36:23.844Z,13.50
2018-06-21T19:38:52.316Z,3.70
2018-06-21T19:41:29.015Z,4.03
2018-06-21T19:43:58.800Z,4.53
2018-06-21T19:46:27.819Z,4.50
2018-06-21T19:48:57.802Z,3.00
2018-06-21T19:51:26.495Z,5.80
2018-06-21T19:53:55.096Z,3.33
2018-06-21T19:56:23.547Z,3.90
2018-06-21T19:58:55.600Z,3.30
2018-06-21T20:01:24.052Z,2.73
2018-06-21T20:03:52.554Z,7.97
2018-06-21T20:06:20.953Z,9.40
2018-06-21T20:08:50.722Z,3.87
2018-06-21T20:11:26.286Z,4.03
2018-06-21T20:13:55.714Z,5.17
2018-06-21T20:16:24.144Z,3.90
2018-06-21T20:18:52.620Z,2.83
2018-06-21T20:21:21.373Z,2.57
2018-06-21T20:23:50.977Z,2.93
2018-06-21T20:26:20.197Z,3.47
2018-06-21T20:28:50.156Z,3.20
2018-06-21T20:31:18.803Z,2.70
2018-06-21T20:33:48.286Z,3.20
2018-06-21T20:36:16.955Z,3.10
2018-06-21T20:38:46.213Z,3.57
2018-06-21T20:41:14.666Z,2.80
2018-06-21T20:43:43.371Z,3.40
2018-06-21T20:46:11.842Z,2.90
2018-06-21T20:48:40.348Z,4.13
2018-06-21T20:51:08.971Z,3.30
2018-06-21T20:53:37.638Z,2.90
2018-06-21T20:56:06.171Z,2.90
2018-06-21T20:58:35.581Z,2.10
2018-06-21T21:01:05.930Z,2.77
2018-06-21T21:03:35.043Z,3.00
2018-06-21T21:06:03.402Z,2.83
2018-06-21T21:08:32.125Z,3.60
2018-06-21T21:11:00.494Z,4.97
2018-06-21T21:13:28.879Z,4.30
2018-06-21T21:15:57.351Z,4.03
2018-06-21T21:18:25.759Z,5.07
2018-06-21T21:20:54.195Z,3.23
2018-06-21T21:23:22.660Z,3.90
2018-06-21T21:25:51.104Z,5.27
2018-06-21T21:28:19.539Z,4.13
2018-06-21T21:30:48.088Z,3.80
2018-06-21T21:33:16.506Z,3.63
2018-06-21T21:35:45.956Z,3.93
2018-06-21T21:38:14.376Z,2.93
2018-06-21T21:40:42.788Z,3.90
2018-06-21T21:43:11.190Z,2.87
2018-06-21T21:45:39.632Z,2.50
2018-06-21T21:48:08.062Z,2.80
2018-06-21T21:50:36.500Z,3.40
2018-06-21T21:53:04.908Z,4.40
2018-06-21T21:55:33.318Z,5.10
2018-06-21T21:58:01.712Z,4.07
2018-06-21T22:00:48.150Z,3.97
2018-06-21T22:03:16.544Z,5.17
2018-06-21T22:05:45.192Z,3.80
2018-06-21T22:08:13.561Z,3.10
2018-06-21T22:10:43.275Z,4.27
2018-06-21T22:13:12.094Z,4.20
2018-06-21T22:15:40.594Z,3.23
2018-06-21T22:18:08.954Z,4.53
2018-06-21T22:20:37.512Z,3.63
2018-06-21T22:23:06.176Z,4.40
2018-06-21T22:25:34.500Z,4.33
2018-06-21T22:28:02.872Z,2.77
2018-06-21T22:30:31.450Z,2.77
2018-06-21T22:33:00.420Z,3.80
2018-06-21T22:35:29.013Z,3.37
2018-06-21T22:37:57.444Z,2.67
2018-06-21T22:40:25.789Z,4.07
2018-06-21T22:42:54.162Z,2.20
2018-06-21T22:45:22.713Z,4.10
2018-06-21T22:47:51.104Z,2.20
2018-06-21T22:50:20.273Z,3.50
2018-06-21T22:52:48.678Z,3.90
2018-06-21T22:55:17.132Z,2.63
2018-06-21T22:57:45.509Z,2.70
2018-06-21T23:00:13.917Z,2.07
2018-06-21T23:02:42.352Z,1.97
2018-06-21T23:05:10.725Z,2.47
2018-06-21T23:07:39.104Z,2.53
2018-06-21T23:10:07.517Z,2.37
2018-06-21T23:12:35.997Z,2.60
2018-06-21T23:15:04.375Z,2.30
2018-06-21T23:17:32.766Z,3.03
2018-06-21T23:20:01.198Z,3.20
2018-06-21T23:22:29.589Z,2.30
2018-06-21T23:24:57.992Z,2.70
2018-06-21T23:27:26.387Z,2.50
2018-06-21T23:29:54.824Z,3.13
2018-06-21T23:32:23.303Z,2.60
2018-06-21T23:34:51.721Z,2.60
2018-06-21T23:37:20.155Z,2.33
2018-06-21T23:39:48.543Z,2.70
2018-06-21T23:42:16.947Z,2.40
2018-06-21T23:44:45.340Z,2.33
2018-06-21T23:47:13.812Z,2.30
2018-06-21T23:49:42.168Z,2.37
2018-06-21T23:52:10.572Z,2.50
2018-06-21T23:54:45.812Z,2.53
2018-06-21T23:57:14.257Z,2.33
2018-06-21T23:59:42.632Z,2.10
